ADDS METAR Data INFO
IDs: Format: Raw Decoded Include TAF

Data at: 1153 UTC 23 Jun 2018

KM91 231140Z AUTO 18003KT 10SM BKN065 20/19 A2985 RMK A01
KM91 231120Z AUTO 00000KT 10SM BKN060 20/19 A2984 RMK A01
KM91 231100Z AUTO 00000KT 10SM FEW033 OVC065 20/19 A2984 RMK A01
KM91 231040Z AUTO 00000KT 10SM OVC033 19/19 A2983 RMK A01
KM91 231020Z AUTO 00000KT 10SM OVC033 19/19 A2983 RMK A01
KM91 231000Z AUTO 00000KT 10SM OVC033 19/19 A2981 RMK A01
KM91 230940Z AUTO 00000KT 10SM OVC034 19/19 A2980 RMK A01
KM91 230920Z AUTO 00000KT 10SM OVC035 20/19 A2980 RMK A01
KM91 230900Z AUTO 00000KT 10SM BKN036 BKN044 OVC075 20/19 A2980 RMK A01
KM91 230840Z AUTO 18003KT 10SM FEW036 SCT042 BKN055 20/19 A2980 RMK A01
KM91 230820Z AUTO 18004KT 10SM FEW037 SCT045 BKN060 20/19 A2979 RMK A01
KM91 230755Z AUTO 20003KT 10SM OVC070 20/19 A2979 RMK A01
KM91 230735Z AUTO 00000KT 10SM FEW034 FEW049 BKN070 20/19 A2979 RMK A01
KM91 230715Z AUTO 21004KT 10SM SCT032 SCT041 BKN070 20/19 A2978 RMK A01
KM91 230655Z AUTO 00000KT 10SM SCT032 BKN041 BKN047 20/19 A2978 RMK A01
KM91 230635Z AUTO 00000KT 10SM FEW038 FEW046 SCT060 20/19 A2978 RMK A01
KM91 230615Z AUTO 21003KT 10SM SCT046 SCT095 20/19 A2979 RMK A01
KM91 230555Z AUTO 00000KT 10SM FEW049 SCT100 20/19 A2979 RMK A01
KM91 230535Z AUTO 16003KT 10SM FEW047 FEW100 20/19 A2978 RMK A01
KM91 230515Z AUTO 20004KT 10SM FEW044 20/19 A2979 RMK A01
KM91 230455Z AUTO 17004KT 10SM FEW047 20/19 A2979 RMK A01
KM91 230435Z AUTO 18003KT 10SM FEW046 20/19 A2979 RMK A01
KM91 230420Z AUTO 00000KT 10SM CLR 21/19 A2979 RMK A01
KM91 230400Z AUTO 18006KT 10SM CLR 21/19 A2978 RMK A01
KM91 230340Z AUTO 17006KT 10SM CLR 20/19 A2978 RMK A01
KM91 230320Z AUTO 00000KT 10SM CLR 21/19 A2977 RMK A01
KM91 230300Z AUTO 00000KT 10SM CLR 21/19 A2977 RMK A01
KM91 230240Z AUTO 00000KT 10SM CLR 21/19 A2977 RMK A01
KM91 230220Z AUTO 00000KT 10SM FEW055 22/19 A2976 RMK A01
KM91 230200Z AUTO 00000KT 10SM FEW055 22/19 A2976 RMK A01
KM91 230140Z AUTO 00000KT 10SM FEW080 22/19 A2975 RMK A01
KM91 230120Z AUTO 24004KT 10SM BKN075 23/19 A2975 RMK A01
KM91 230055Z AUTO 25004KT 10SM FEW065 SCT075 24/19 A2974 RMK A01
KM91 230035Z AUTO 26005KT 10SM FEW046 SCT060 BKN075 25/19 A2974 RMK A01
KM91 230015Z AUTO 26004KT 10SM BKN060 BKN075 BKN085 25/19 A2974 RMK A01
KM91 222355Z AUTO 25006G12KT 10SM SCT060 BKN075 25/18 A2974 RMK A01
KM91 222335Z AUTO 26007KT 10SM SCT060 SCT075 25/19 A2974 RMK A01
KM91 222315Z AUTO 25006G12KT 10SM FEW042 FEW050 FEW060 25/19 A2973 RMK A01
KM91 222300Z AUTO 26010KT FEW043 SCT050 BKN075 26/19 A2973 RMK A01
KM91 222240Z AUTO 25011KT 10SM FEW049 BKN070 27/19 A2972 RMK A01
KM91 222220Z AUTO 27010KT 10SM FEW039 FEW048 BKN070 26/18 A2973 RMK A01
KM91 222200Z AUTO 25009KT 10SM FEW040 SCT047 BKN065 26/19 A2973 RMK A01
KM91 222140Z AUTO 25011KT 10SM FEW041 BKN065 OVC075 26/18 A2972 RMK A01
KM91 222120Z AUTO 26010G18KT 10SM FEW055 BKN070 26/18 A2972 RMK A01
KM91 222100Z AUTO 25013G19KT 10SM FEW075 27/19 A2972 RMK A01
KM91 222035Z AUTO 25015G20KT 10SM FEW041 SCT049 SCT055 28/19 A2972 RMK A01
KM91 222015Z AUTO 25013G18KT 10SM FEW040 SCT049 BKN055 27/19 A2972 RMK A01
KM91 221955Z AUTO 24011G18KT 10SM SCT039 BKN050 BKN065 27/19 A2972 RMK A01
KM91 221935Z AUTO 25012G20KT 10SM SCT040 SCT055 BKN075 27/19 A2972 RMK A01
KM91 221915Z AUTO 24019KT 10SM FEW039 SCT065 28/19 A2971 RMK A01
KM91 221855Z AUTO 25016KT 10SM FEW036 FEW043 FEW055 28/19 A2972 RMK A01
KM91 221835Z AUTO 24015G20KT 10SM SCT036 SCT042 27/20 A2972 RMK A01
KM91 221815Z AUTO 22016G24KT 10SM FEW033 FEW042 SCT050 27/20 A2973 RMK A01
KM91 221755Z AUTO 21013G21KT 10SM FEW028 SCT032 BKN050 27/21 A2974 RMK A01
KM91 221735Z AUTO 23015G22KT 10SM FEW023 SCT030 BKN041 26/21 A2975 RMK A01
KM91 221720Z AUTO 20011KT 10SM SCT023 BKN028 BKN036 25/21 A2975 RMK A01
KM91 221700Z AUTO 20012G17KT 10SM SCT023 BKN029 BKN035 25/21 A2976 RMK A01
KM91 221640Z AUTO 20012G21KT 10SM BKN023 BKN032 BKN100 25/21 A2976 RMK A01
KM91 221620Z AUTO 22010G17KT 10SM FEW021 SCT025 OVC095 25/21 A2976 RMK A01
KM91 221555Z AUTO 19010KT 10SM FEW050 BKN090 BKN120 24/20 A2976 RMK A01
KM91 221535Z AUTO 17010KT 10SM OVC080 23/20 A2977 RMK A01
KM91 221515Z AUTO 18007KT 150V210 10SM SCT050 OVC075 22/20 A2977 RMK A01
KM91 221455Z AUTO 19007KT 10SM BKN050 BKN075 OVC095 22/20 A2977 RMK A01
KM91 221435Z AUTO VRB06KT 10SM SCT049 BKN065 OVC095 22/21 A2977 RMK A01
KM91 221420Z AUTO 20007KT 8SM FEW022 SCT065 BKN070 21/20 A2978 RMK A01
KM91 221400Z AUTO 22009KT 9SM SCT055 BKN095 22/20 A2978 RMK A01
KM91 221340Z AUTO 20006KT 5SM BR SCT055 BKN070 OVC100 22/20 A2977 RMK A01
KM91 221320Z AUTO 18008KT 10SM BKN070 BKN080 BKN120 22/20 A2977 RMK A01
KM91 221255Z AUTO 19008KT 10SM FEW090 BKN120 22/21 A2977 RMK A01
KM91 221235Z AUTO 20008KT 10SM FEW090 SCT120 21/20 A2977 RMK A01
KM91 221215Z AUTO 17008G14KT 10SM BKN120 21/20 A2976 RMK A01
KM91 221155Z AUTO 20007KT 10SM FEW065 20/20 A2976 RMK A01
KM91 221135Z AUTO 18007KT 10SM SCT065 BKN120 20/19 A2975 RMK A01
KM91 221115Z AUTO 18007KT 10SM BKN120 19/19 A2976 RMK A01
KM91 221055Z AUTO 17006KT 10SM FEW070 FEW120 19/19 A2975 RMK A01
KM91 221035Z AUTO 18005KT 10SM FEW005 SCT075 19/19 A2975 RMK A01
KM91 221015Z AUTO 19009KT 10SM BKN004 BKN049 BKN075 19/19 A2975 RMK A01
KM91 221000Z AUTO 19008KT 10SM BKN005 OVC049 19/19 A2975 RMK A01
KM91 220940Z AUTO 19006KT 10SM BKN005 BKN060 OVC110 20/19 A2974 RMK A01
KM91 220920Z AUTO 18004KT 10SM FEW004 SCT055 OVC100 19/19 A2974 RMK A01
KM91 220900Z AUTO 19006KT 10SM OVC095 19/19 A2974 RMK A01
KM91 220840Z AUTO 15005KT 10SM FEW055 FEW070 OVC085 19/19 A2973 RMK A01
KM91 220820Z AUTO 15006KT 10SM SCT060 BKN085 19/19 A2973 RMK A01
KM91 220800Z AUTO 18006KT 10SM BKN060 19/19 A2974 RMK A01
KM91 220740Z AUTO 18004KT 10SM FEW100 20/19 A2974 RMK A01
KM91 220715Z AUTO 17003KT 10SM FEW004 SCT035 SCT050 20/20 A2975 RMK A01
KM91 220655Z AUTO 20004KT 10SM BKN004 BKN019 OVC095 20/20 A2975 RMK A01
KM91 220635Z AUTO 22004KT 10SM BKN005 OVC019 20/20 A2976 RMK A01
KM91 220615Z AUTO 20003KT 10SM BKN005 OVC019 20/20 A2977 RMK A01
KM91 220555Z AUTO 00000KT 10SM SCT005 BKN026 OVC034 20/20 A2977 RMK A01
KM91 220535Z AUTO 00000KT 10SM SCT018 BKN027 OVC045 20/20 A2977 RMK A01
KM91 220515Z AUTO 00000KT 10SM OVC018 20/20 A2978 RMK A01
KM91 220455Z AUTO 19004KT 10SM SCT018 BKN034 OVC050 20/19 A2978 RMK A01
KM91 220435Z AUTO 00000KT 10SM FEW035 SCT043 OVC050 20/19 A2978 RMK A01
KM91 220415Z AUTO 00000KT 10SM FEW002 FEW026 BKN055 20/19 A2978 RMK A01
KM91 220355Z AUTO 00000KT 10SM FEW002 FEW026 BKN037 20/20 A2978 RMK A01
KM91 220340Z AUTO 15003KT 10SM FEW031 OVC038 20/19 A2977 RMK A01
KM91 220315Z AUTO 00000KT 10SM SCT037 SCT046 SCT065 20/20 A2978 RMK A01
KM91 220255Z AUTO 12005KT 9SM FEW014 SCT045 BKN075 20/20 A2977 RMK A01 P0017
KM91 220240Z AUTO 13004KT 10SM FEW045 SCT060 OVC075 20/20 A2977 RMK A01
KM91 220215Z AUTO 15003KT 8SM SCT005 BKN045 OVC075 20/20 A2978 RMK A01
KM91 220155Z AUTO 00000KT 9SM FEW009 SCT036 BKN042 20/20 A2978 RMK A01 P0003
KM91 220135Z AUTO 35004G10KT 10SM FEW029 BKN039 OVC049 20/19 A2979 RMK A01
KM91 220115Z AUTO 29012KT 7SM OVC035 21/19 A2981 RMK A01
KM91 220055Z AUTO 32008G16KT 10SM BKN031 BKN040 OVC065 22/19 A2977 RMK A01
KM91 220035Z AUTO 31013G27KT 10SM FEW031 SCT070 OVC110 25/20 A2977 RMK A01
KM91 220015Z AUTO 24007KT 10SM BKN120 26/21 A2976 RMK A01
KM91 212355Z AUTO 23009KT 10SM CLR 26/21 A2976 RMK A01